Time;durP1;ratioP1;P1;durP2;ratioP2;P2;SDS_P1;SDS_P2;PMS_P1;PMS_P2;Temp;Humidity;BMP_temperature;BMP_pressure;BME280_temperature;BME280_humidity;BME280_pressure;Samples;Min_cycle;Max_cycle;Signal;HPM_P1;HPM_P2
2022/01/17 00:02:22;;;;;;;15.73;2.63;;;6.10;99.90;;;;;;5045550;28;20195;-43
2022/01/17 00:04:49;;;;;;;17.17;2.83;;;6.10;99.90;;;;;;5045003;28;20219;-43
2022/01/17 00:07:18;;;;;;;12.63;2.53;;;6.10;99.90;;;;;;5034271;28;21981;-45
2022/01/17 00:09:45;;;;;;;12.67;3.23;;;6.10;99.90;;;;;;5061086;28;20540;-41
2022/01/17 00:12:11;;;;;;;8.77;2.10;;;6.10;99.90;;;;;;5043622;28;20214;-41
2022/01/17 00:14:41;;;;;;;11.60;2.57;;;6.10;99.90;;;;;;5065297;28;20226;-42
2022/01/17 00:17:23;;;;;;;12.87;2.47;;;6.10;99.90;;;;;;5061271;28;20272;-44
2022/01/17 00:19:54;;;;;;;13.43;2.03;;;6.10;99.90;;;;;;5063418;28;20202;-41
2022/01/17 00:22:22;;;;;;;15.27;3.37;;;6.10;99.90;;;;;;5049339;28;20388;-42
2022/01/17 00:24:50;;;;;;;10.27;2.40;;;6.10;99.90;;;;;;5051499;28;20731;-42
2022/01/17 00:27:18;;;;;;;8.93;2.03;;;6.20;99.90;;;;;;5057562;28;20354;-42
2022/01/17 00:29:46;;;;;;;13.07;3.30;;;6.20;99.90;;;;;;5050440;28;20257;-45
2022/01/17 00:32:13;;;;;;;20.93;4.40;;;6.20;99.90;;;;;;5043449;28;20191;-44
2022/01/17 00:34:40;;;;;;;9.23;1.83;;;6.10;99.90;;;;;;5045694;28;20223;-42
2022/01/17 00:37:08;;;;;;;11.50;3.20;;;6.20;99.90;;;;;;5030509;28;20947;-41
2022/01/17 00:39:35;;;;;;;12.87;2.77;;;6.20;99.90;;;;;;5051932;28;20675;-40
2022/01/17 00:42:02;;;;;;;16.63;3.27;;;6.20;99.90;;;;;;5048583;28;20245;-42
2022/01/17 00:44:29;;;;;;;16.60;2.63;;;6.20;99.90;;;;;;5045649;28;20223;-46
2022/01/17 00:46:57;;;;;;;13.10;2.47;;;6.20;99.90;;;;;;5042228;28;20203;-41
2022/01/17 00:49:24;;;;;;;13.57;2.70;;;6.20;99.90;;;;;;5045239;28;20238;-44
2022/01/17 00:51:51;;;;;;;13.23;2.83;;;6.30;99.90;;;;;;5036991;28;20282;-41
2022/01/17 00:54:18;;;;;;;11.60;2.40;;;6.30;99.90;;;;;;5045217;28;20367;-43
2022/01/17 00:56:46;;;;;;;8.77;2.17;;;6.30;99.90;;;;;;5050795;28;20214;-44
2022/01/17 00:59:13;;;;;;;11.13;2.37;;;6.30;99.90;;;;;;5053290;28;20195;-45
2022/01/17 01:01:39;;;;;;;13.27;2.10;;;6.30;99.90;;;;;;5048257;28;20749;-41
2022/01/17 01:04:08;;;;;;;15.00;2.80;;;6.30;99.90;;;;;;5041187;28;20484;-41
2022/01/17 01:06:36;;;;;;;11.83;1.90;;;6.30;99.90;;;;;;5044835;28;20218;-40
2022/01/17 01:09:03;;;;;;;9.43;2.23;;;6.40;99.90;;;;;;5033761;28;20211;-40
2022/01/17 01:11:30;;;;;;;15.17;2.27;;;6.40;99.90;;;;;;5049429;28;20202;-43
2022/01/17 01:13:57;;;;;;;14.13;2.53;;;6.40;99.90;;;;;;5044511;28;20214;-41
2022/01/17 01:16:32;;;;;;;10.63;2.37;;;6.40;99.90;;;;;;5044479;28;20203;-42
2022/01/17 01:30:08;;;;;;;12.63;2.47;;;6.40;99.90;;;;;;5046358;28;20204;-43
2022/01/17 01:32:41;;;;;;;10.43;2.23;;;6.50;99.90;;;;;;5044885;28;20564;-41
2022/01/17 01:35:11;;;;;;;14.87;2.47;;;6.50;99.90;;;;;;5047928;28;20301;-41
2022/01/17 01:37:40;;;;;;;16.43;2.43;;;6.50;99.90;;;;;;5043863;28;20290;-43
2022/01/17 01:40:07;;;;;;;11.70;2.77;;;6.50;99.90;;;;;;5032361;28;20206;-43
2022/01/17 01:42:34;;;;;;;13.50;2.77;;;6.50;99.90;;;;;;5051146;28;20227;-43
2022/01/17 01:45:02;;;;;;;12.50;2.50;;;6.60;99.90;;;;;;5043323;28;20955;-42
2022/01/17 01:47:29;;;;;;;11.13;2.23;;;6.60;99.90;;;;;;5044417;28;20203;-42
2022/01/17 01:49:56;;;;;;;11.67;2.43;;;6.60;99.90;;;;;;5041557;28;20209;-42
2022/01/17 01:52:23;;;;;;;15.60;2.63;;;6.60;99.90;;;;;;5043717;28;20199;-43
2022/01/17 01:54:51;;;;;;;15.73;2.37;;;6.70;99.90;;;;;;5036471;28;20231;-42
2022/01/17 01:57:18;;;;;;;14.93;2.60;;;6.70;99.90;;;;;;5044841;28;20206;-41
2022/01/17 01:59:45;;;;;;;13.03;2.50;;;6.70;99.90;;;;;;5049724;28;20483;-43
2022/01/17 02:02:13;;;;;;;11.33;2.17;;;6.70;99.90;;;;;;5041168;28;20211;-40
2022/01/17 02:04:40;;;;;;;16.50;2.70;;;6.70;99.90;;;;;;5043873;28;20223;-42
2022/01/17 02:07:06;;;;;;;13.50;2.57;;;6.70;99.90;;;;;;5039911;28;20191;-42
2022/01/17 02:09:33;;;;;;;7.60;2.13;;;6.80;99.90;;;;;;5044120;28;20206;-44
2022/01/17 02:12:02;;;;;;;19.60;2.90;;;6.80;99.90;;;;;;5031708;28;20316;-41
2022/01/17 02:14:29;;;;;;;18.50;3.57;;;6.80;99.90;;;;;;5048316;28;20219;-45
2022/01/17 02:16:56;;;;;;;11.87;3.70;;;6.80;99.90;;;;;;5043718;28;20233;-43
2022/01/17 02:19:25;;;;;;;13.47;2.33;;;6.90;99.90;;;;;;5043071;28;20676;-44
2022/01/17 02:21:53;;;;;;;12.63;2.37;;;6.90;99.90;;;;;;5041742;28;20341;-41
2022/01/17 02:24:22;;;;;;;15.57;2.80;;;6.90;99.90;;;;;;5042610;28;20212;-42
2022/01/17 02:26:50;;;;;;;7.33;2.07;;;6.80;99.90;;;;;;5038232;28;20278;-41
2022/01/17 02:29:17;;;;;;;10.83;2.53;;;6.80;99.90;;;;;;5048609;28;20966;-44
2022/01/17 02:31:46;;;;;;;11.50;2.17;;;6.90;99.90;;;;;;5045482;28;20202;-40
2022/01/17 02:34:12;;;;;;;13.60;2.57;;;6.80;99.90;;;;;;5040590;28;20219;-40
2022/01/17 02:36:40;;;;;;;12.63;2.27;;;6.80;99.90;;;;;;5043428;28;20203;-43
2022/01/17 02:39:08;;;;;;;17.50;2.93;;;6.80;99.90;;;;;;5039667;28;20205;-43
2022/01/17 02:41:39;;;;;;;12.77;2.00;;;6.90;99.90;;;;;;5043486;28;20234;-40
2022/01/17 02:44:06;;;;;;;14.87;2.77;;;6.90;99.90;;;;;;5035126;28;20281;-40
2022/01/17 02:46:33;;;;;;;12.70;2.57;;;6.90;99.90;;;;;;5050560;28;20291;-40
2022/01/17 02:49:02;;;;;;;14.57;2.50;;;6.90;99.90;;;;;;5039509;28;20211;-44
2022/01/17 02:51:29;;;;;;;11.67;2.27;;;6.90;99.90;;;;;;5043411;28;20191;-42
2022/01/17 02:53:56;;;;;;;11.57;2.47;;;6.90;99.90;;;;;;5040329;28;20227;-42
2022/01/17 02:56:25;;;;;;;15.47;2.37;;;6.90;99.90;;;;;;5044511;28;20211;-42
2022/01/17 02:58:52;;;;;;;19.10;2.97;;;6.90;99.90;;;;;;5034659;28;20203;-40
2022/01/17 03:01:21;;;;;;;14.03;3.27;;;6.90;99.90;;;;;;5052631;28;20215;-43
2022/01/17 03:03:48;;;;;;;19.60;2.80;;;6.90;99.90;;;;;;5061180;28;20206;-42
2022/01/17 03:06:17;;;;;;;14.23;2.33;;;6.90;99.90;;;;;;5059914;28;20193;-43
2022/01/17 03:08:45;;;;;;;8.73;2.27;;;6.90;99.90;;;;;;5062342;28;20282;-42
2022/01/17 03:11:15;;;;;;;9.37;2.40;;;6.90;99.90;;;;;;5063846;28;20191;-40
2022/01/17 03:13:44;;;;;;;12.13;3.53;;;6.90;99.90;;;;;;5064932;28;20198;-41
2022/01/17 03:16:14;;;;;;;9.10;2.30;;;7.00;99.90;;;;;;5040931;28;20258;-41
2022/01/17 03:18:43;;;;;;;9.93;2.37;;;7.00;99.90;;;;;;5060111;28;20286;-40
2022/01/17 03:21:12;;;;;;;13.37;2.27;;;7.00;99.90;;;;;;5056706;28;20949;-41
2022/01/17 03:23:41;;;;;;;14.53;2.03;;;7.00;99.90;;;;;;5046950;28;20269;-42
2022/01/17 03:26:08;;;;;;;10.93;2.60;;;6.90;99.90;;;;;;5043114;28;20222;-40
2022/01/17 03:28:35;;;;;;;14.83;2.83;;;7.00;99.90;;;;;;5060142;28;20594;-40
2022/01/17 03:31:04;;;;;;;13.73;3.33;;;7.00;99.90;;;;;;5040140;28;20207;-40
2022/01/17 03:33:31;;;;;;;11.80;2.40;;;7.00;99.90;;;;;;5055477;28;20199;-41
2022/01/17 03:35:58;;;;;;;12.00;2.17;;;7.00;99.90;;;;;;5043141;28;20216;-42
2022/01/17 03:38:27;;;;;;;14.60;2.63;;;7.00;99.90;;;;;;5045403;28;20576;-42
2022/01/17 03:40:54;;;;;;;20.07;2.43;;;7.00;99.90;;;;;;5055700;28;20199;-41
2022/01/17 03:43:23;;;;;;;20.97;2.80;;;7.00;99.90;;;;;;5049993;28;20199;-40
2022/01/17 03:45:51;;;;;;;16.10;2.83;;;7.00;99.90;;;;;;5037928;28;20284;-41
2022/01/17 03:48:20;;;;;;;11.90;1.90;;;7.00;99.90;;;;;;5048940;28;20284;-42
2022/01/17 03:50:47;;;;;;;9.40;2.10;;;7.00;99.90;;;;;;5044784;28;20199;-41
2022/01/17 03:53:14;;;;;;;9.73;2.47;;;7.00;99.90;;;;;;5044371;28;20203;-40
2022/01/17 03:55:41;;;;;;;14.67;2.80;;;7.00;99.90;;;;;;5046454;28;20238;-43
2022/01/17 03:58:09;;;;;;;15.13;2.20;;;7.00;99.90;;;;;;5051754;28;20187;-40
2022/01/17 04:00:38;;;;;;;10.60;2.73;;;7.00;99.90;;;;;;5045461;28;20218;-41
2022/01/17 04:03:06;;;;;;;15.17;3.13;;;7.00;99.90;;;;;;5048605;28;20214;-41
2022/01/17 04:05:34;;;;;;;10.40;2.23;;;7.00;99.90;;;;;;5050395;28;20226;-41
2022/01/17 04:08:01;;;;;;;12.27;2.30;;;7.00;99.90;;;;;;5042014;28;20286;-44
2022/01/17 04:10:28;;;;;;;13.83;2.50;;;7.00;99.90;;;;;;5046254;28;20267;-41
2022/01/17 04:13:01;;;;;;;17.57;3.50;;;7.00;99.90;;;;;;5043104;28;20191;-40
2022/01/17 04:15:29;;;;;;;14.20;2.37;;;7.00;99.90;;;;;;5046001;28;20219;-44
2022/01/17 04:17:55;;;;;;;13.70;2.47;;;7.00;99.90;;;;;;5039458;28;20297;-40
2022/01/17 04:20:27;;;;;;;11.73;2.07;;;7.00;99.90;;;;;;5046964;28;20645;-41
2022/01/17 04:22:57;;;;;;;16.87;3.30;;;7.00;99.90;;;;;;5043367;28;20226;-41
2022/01/17 04:25:25;;;;;;;14.17;2.97;;;7.00;99.90;;;;;;5045437;28;20216;-40
2022/01/17 04:27:53;;;;;;;12.97;2.70;;;7.10;99.90;;;;;;5049948;28;20298;-40
2022/01/17 04:30:21;;;;;;;9.17;2.83;;;7.10;99.90;;;;;;5051064;28;20196;-42
2022/01/17 04:32:49;;;;;;;13.60;3.03;;;7.10;99.90;;;;;;5035487;28;20207;-41
2022/01/17 04:35:21;;;;;;;12.40;3.23;;;7.10;99.90;;;;;;5056900;28;20219;-41
2022/01/17 04:37:50;;;;;;;8.60;2.87;;;7.10;99.90;;;;;;5046346;28;20196;-41
2022/01/17 04:40:18;;;;;;;12.00;2.10;;;7.10;99.90;;;;;;5043890;28;20199;-42
2022/01/17 04:42:48;;;;;;;13.33;2.63;;;7.10;99.90;;;;;;5044772;28;20233;-41
2022/01/17 04:45:18;;;;;;;12.77;2.50;;;7.20;99.90;;;;;;5047952;28;20329;-42
2022/01/17 04:47:48;;;;;;;11.43;2.83;;;7.20;99.90;;;;;;5048455;28;20278;-44
2022/01/17 04:50:17;;;;;;;19.20;3.27;;;7.30;99.90;;;;;;5045114;28;20203;-41
2022/01/17 04:52:44;;;;;;;7.93;3.00;;;7.40;99.90;;;;;;5045409;28;20203;-40
2022/01/17 04:55:14;;;;;;;18.07;4.43;;;7.40;99.90;;;;;;5042294;28;20361;-41
2022/01/17 04:57:43;;;;;;;21.43;3.83;;;7.40;99.90;;;;;;5054819;28;20569;-41
2022/01/17 05:00:13;;;;;;;10.80;2.43;;;7.30;99.90;;;;;;5045187;28;20195;-41
2022/01/17 05:02:42;;;;;;;22.20;3.17;;;7.30;99.90;;;;;;5058279;28;20238;-41
2022/01/17 05:05:09;;;;;;;16.37;2.93;;;7.30;99.90;;;;;;5032386;28;21013;-42
2022/01/17 05:07:38;;;;;;;14.73;3.33;;;7.30;99.90;;;;;;5055328;28;20671;-41
2022/01/17 05:10:10;;;;;;;15.03;3.30;;;7.30;99.90;;;;;;5040960;28;20187;-40
2022/01/17 05:12:37;;;;;;;12.23;2.43;;;7.30;99.90;;;;;;5036692;28;20221;-41
2022/01/17 05:15:06;;;;;;;16.37;3.33;;;7.30;99.90;;;;;;5057105;28;20301;-42
2022/01/17 05:17:44;;;;;;;16.13;2.93;;;7.30;99.90;;;;;;5047139;28;20211;-41
2022/01/17 05:20:12;;;;;;;16.83;2.90;;;7.30;99.90;;;;;;5039848;28;20230;-43
2022/01/17 05:22:41;;;;;;;19.97;2.97;;;7.30;99.90;;;;;;5043610;28;20214;-44
2022/01/17 05:25:10;;;;;;;14.27;2.80;;;7.30;99.90;;;;;;5044702;28;20223;-42
2022/01/17 05:27:37;;;;;;;21.27;3.37;;;7.40;99.90;;;;;;5042861;28;20203;-44
2022/01/17 05:30:10;;;;;;;13.20;2.83;;;7.40;99.90;;;;;;5051975;28;20207;-41
2022/01/17 05:32:38;;;;;;;16.60;3.40;;;7.40;99.90;;;;;;5046898;28;20191;-40
2022/01/17 05:35:05;;;;;;;16.83;3.53;;;7.50;99.90;;;;;;5050644;28;20219;-41
2022/01/17 05:37:32;;;;;;;12.73;3.10;;;7.40;99.90;;;;;;5027491;28;20215;-43
2022/01/17 05:39:58;;;;;;;17.63;4.67;;;7.50;99.90;;;;;;5050918;28;20199;-41
2022/01/17 05:42:26;;;;;;;10.03;2.53;;;7.50;99.90;;;;;;5056876;28;20219;-41
2022/01/17 05:44:53;;;;;;;12.67;2.90;;;7.50;99.90;;;;;;5053022;28;20280;-44
2022/01/17 05:47:22;;;;;;;24.23;3.67;;;7.50;99.90;;;;;;5046738;28;20576;-41
2022/01/17 05:49:48;;;;;;;19.50;3.37;;;7.50;99.90;;;;;;5041214;28;20210;-43
2022/01/17 05:52:16;;;;;;;17.63;3.60;;;7.50;99.90;;;;;;5030909;28;20223;-42
2022/01/17 05:54:43;;;;;;;17.90;3.27;;;7.60;99.90;;;;;;5046231;28;20246;-41
2022/01/17 05:57:10;;;;;;;15.17;4.07;;;7.60;99.90;;;;;;5048754;28;20206;-42
2022/01/17 05:59:37;;;;;;;12.37;2.90;;;7.60;99.90;;;;;;5048997;28;20194;-42
2022/01/17 06:02:04;;;;;;;26.03;4.27;;;7.60;99.90;;;;;;5042657;28;20234;-40
2022/01/17 06:04:32;;;;;;;14.67;3.13;;;7.60;99.90;;;;;;5051471;28;20214;-40
2022/01/17 06:06:59;;;;;;;17.93;3.97;;;7.60;99.90;;;;;;5046440;28;20204;-41
2022/01/17 06:09:26;;;;;;;18.07;3.33;;;7.60;99.90;;;;;;5036737;28;20801;-42
2022/01/17 06:11:53;;;;;;;19.63;3.70;;;7.60;99.90;;;;;;5050030;28;20199;-42
2022/01/17 06:14:21;;;;;;;9.80;2.90;;;7.60;99.90;;;;;;5057747;28;20694;-40
2022/01/17 06:16:49;;;;;;;14.60;3.77;;;7.70;99.90;;;;;;5055074;28;20187;-42
2022/01/17 06:19:17;;;;;;;18.07;3.37;;;7.70;99.90;;;;;;5058442;28;20707;-44
2022/01/17 06:21:45;;;;;;;15.17;3.30;;;7.70;99.90;;;;;;5047118;28;20253;-43
2022/01/17 06:24:12;;;;;;;10.63;2.70;;;7.70;99.90;;;;;;5035649;28;20718;-40
2022/01/17 06:26:40;;;;;;;17.57;3.20;;;7.70;99.90;;;;;;5048184;28;20206;-40
2022/01/17 06:29:09;;;;;;;18.00;3.57;;;7.70;99.90;;;;;;5054578;28;20191;-43
2022/01/17 06:31:36;;;;;;;23.00;3.90;;;7.70;99.90;;;;;;5055328;28;20190;-41
2022/01/17 06:34:04;;;;;;;15.50;3.70;;;7.70;99.90;;;;;;5056264;28;20205;-41
2022/01/17 06:36:31;;;;;;;15.53;3.73;;;7.70;99.90;;;;;;5052168;28;20195;-45
2022/01/17 06:39:00;;;;;;;15.90;2.93;;;7.60;99.90;;;;;;5060476;28;20307;-41
2022/01/17 06:41:28;;;;;;;20.37;3.80;;;7.60;99.90;;;;;;5025467;28;20207;-42
2022/01/17 06:43:54;;;;;;;23.23;4.33;;;7.50;99.90;;;;;;5053059;28;20719;-40
2022/01/17 06:46:21;;;;;;;25.40;4.13;;;7.50;99.90;;;;;;5048635;28;20195;-41
2022/01/17 06:48:48;;;;;;;17.53;3.80;;;7.40;99.90;;;;;;5048376;28;20770;-44
2022/01/17 06:51:15;;;;;;;24.93;5.50;;;7.40;99.90;;;;;;5047461;28;20203;-40
2022/01/17 06:53:43;;;;;;;18.93;3.63;;;7.30;99.90;;;;;;5050832;28;20190;-43
2022/01/17 06:56:11;;;;;;;15.63;3.73;;;7.30;99.90;;;;;;5034669;28;20300;-41
2022/01/17 06:58:40;;;;;;;24.77;4.47;;;7.30;99.90;;;;;;5042953;28;20428;-43
2022/01/17 07:01:08;;;;;;;23.67;4.50;;;7.30;99.90;;;;;;5051974;28;20558;-43
2022/01/17 07:03:35;;;;;;;21.07;4.63;;;7.30;99.90;;;;;;5052499;28;20219;-39
2022/01/17 07:06:01;;;;;;;24.83;4.47;;;7.30;99.90;;;;;;5051041;28;20215;-40
2022/01/17 07:08:29;;;;;;;24.43;4.40;;;7.30;99.90;;;;;;5042050;28;20203;-42
2022/01/17 07:10:55;;;;;;;21.03;4.00;;;7.30;99.90;;;;;;5062664;28;20198;-40
2022/01/17 07:13:24;;;;;;;29.53;4.67;;;7.30;99.90;;;;;;5039558;28;20711;-44
2022/01/17 07:15:50;;;;;;;24.10;4.47;;;7.30;99.90;;;;;;5048239;28;20228;-43
2022/01/17 07:18:18;;;;;;;21.63;4.80;;;7.30;99.90;;;;;;5057079;28;20202;-40
2022/01/17 07:20:44;;;;;;;24.00;4.83;;;7.30;99.90;;;;;;5043632;28;20935;-40
2022/01/17 07:23:11;;;;;;;27.33;5.00;;;7.30;99.90;;;;;;5051492;28;20221;-40
2022/01/17 07:25:38;;;;;;;24.40;5.27;;;7.30;99.90;;;;;;5049888;28;20219;-40
2022/01/17 07:28:08;;;;;;;19.90;4.30;;;7.30;99.90;;;;;;5036841;28;20218;-42
2022/01/17 07:30:37;;;;;;;36.00;5.63;;;7.30;99.90;;;;;;5046268;28;20199;-41
2022/01/17 07:33:05;;;;;;;30.53;4.97;;;7.30;99.90;;;;;;5055838;28;20196;-42
2022/01/17 07:35:32;;;;;;;25.87;3.87;;;7.30;99.90;;;;;;5041560;28;20219;-40
2022/01/17 07:37:59;;;;;;;26.03;4.70;;;7.30;99.90;;;;;;5041508;28;20211;-39
2022/01/17 07:40:26;;;;;;;26.80;5.13;;;7.30;99.90;;;;;;5051646;28;20199;-38
2022/01/17 07:42:53;;;;;;;19.57;4.43;;;7.30;99.90;;;;;;4987019;28;20503;-39
2022/01/17 07:45:21;;;;;;;26.67;5.17;;;7.30;99.90;;;;;;5049278;28;20241;-41
2022/01/17 07:48:22;;;;;;;26.23;5.53;;;7.30;99.90;;;;;;5040159;28;20216;-40
2022/01/17 07:50:49;;;;;;;20.17;3.83;;;7.30;99.90;;;;;;5039114;28;20199;-40
2022/01/17 07:53:17;;;;;;;22.37;3.37;;;7.40;99.90;;;;;;5055299;28;20214;-39
2022/01/17 07:55:44;;;;;;;21.97;3.50;;;7.30;99.90;;;;;;5044761;28;20256;-39
2022/01/17 07:58:11;;;;;;;23.13;3.70;;;7.30;99.90;;;;;;5039826;28;20206;-41
2022/01/17 08:00:38;;;;;;;30.07;5.67;;;7.30;99.90;;;;;;5049137;28;20992;-39
2022/01/17 08:03:06;;;;;;;22.77;4.53;;;7.30;99.90;;;;;;5048079;28;20596;-41
2022/01/17 08:05:34;;;;;;;20.93;4.13;;;7.30;99.90;;;;;;5043844;28;20280;-45
2022/01/17 08:08:01;;;;;;;22.47;3.70;;;7.30;99.90;;;;;;5050204;28;20219;-41
2022/01/17 08:10:29;;;;;;;20.20;3.87;;;7.40;99.90;;;;;;5046933;28;20203;-37
2022/01/17 08:12:55;;;;;;;20.10;4.53;;;7.40;99.90;;;;;;5034988;28;21357;-40
2022/01/17 08:15:22;;;;;;;28.27;4.53;;;7.40;99.90;;;;;;5048614;28;20702;-39
2022/01/17 08:17:49;;;;;;;25.43;4.57;;;7.40;99.90;;;;;;5046569;28;20218;-39
2022/01/17 08:20:19;;;;;;;21.40;3.87;;;7.40;99.90;;;;;;5054167;28;20192;-41
2022/01/17 08:22:46;;;;;;;17.00;3.07;;;7.40;99.90;;;;;;5051939;28;20211;-41
2022/01/17 08:25:14;;;;;;;15.00;3.53;;;7.50;99.90;;;;;;5044783;28;20226;-46
2022/01/17 08:27:41;;;;;;;23.93;3.93;;;7.50;99.90;;;;;;5044002;28;20213;-42
2022/01/17 08:30:09;;;;;;;28.43;4.63;;;7.50;99.90;;;;;;5043517;28;20195;-49
2022/01/17 08:32:35;;;;;;;14.77;3.90;;;7.50;99.90;;;;;;5045237;28;20199;-44
2022/01/17 08:35:02;;;;;;;25.67;4.60;;;7.60;99.90;;;;;;5050496;28;20218;-41
2022/01/17 08:37:31;;;;;;;22.70;3.70;;;7.60;99.90;;;;;;5051452;28;20641;-44
2022/01/17 08:39:59;;;;;;;19.77;4.57;;;7.70;99.90;;;;;;5050298;28;20214;-46
2022/01/17 08:42:27;;;;;;;23.30;3.90;;;7.70;99.90;;;;;;5043170;28;20648;-43
2022/01/17 08:44:55;;;;;;;16.87;3.30;;;7.70;99.90;;;;;;5037440;28;20233;-43
2022/01/17 08:47:22;;;;;;;17.93;4.27;;;7.70;99.90;;;;;;5053733;28;20217;-42
2022/01/17 08:49:49;;;;;;;26.67;4.00;;;7.80;99.90;;;;;;5050768;28;20614;-45
2022/01/17 08:52:16;;;;;;;23.90;4.37;;;7.90;99.90;;;;;;5047298;28;20557;-46
2022/01/17 08:54:45;;;;;;;8.90;3.37;;;7.90;99.90;;;;;;5048697;28;20229;-42
2022/01/17 08:57:12;;;;;;;23.30;5.70;;;7.90;99.90;;;;;;5041600;28;20203;-42
2022/01/17 08:59:39;;;;;;;27.07;4.97;;;7.90;99.90;;;;;;5042789;28;20202;-47
2022/01/17 09:02:06;;;;;;;25.90;4.00;;;7.90;99.90;;;;;;5047095;28;20203;-47
2022/01/17 09:04:34;;;;;;;18.77;3.47;;;7.90;99.90;;;;;;5051678;28;20211;-43
2022/01/17 09:07:00;;;;;;;10.37;3.40;;;8.00;99.90;;;;;;5050103;28;20341;-42
2022/01/17 09:09:27;;;;;;;12.20;3.37;;;8.00;99.90;;;;;;5054743;28;20238;-42
2022/01/17 09:11:55;;;;;;;14.03;3.40;;;8.00;99.90;;;;;;5047501;28;20207;-42
2022/01/17 09:14:22;;;;;;;14.13;2.90;;;8.00;99.90;;;;;;5039400;28;20218;-46
2022/01/17 09:16:48;;;;;;;13.10;3.87;;;8.00;99.90;;;;;;5050417;28;20190;-45
2022/01/17 09:19:15;;;;;;;9.70;3.57;;;8.00;99.90;;;;;;5040871;28;20198;-42
2022/01/17 09:21:42;;;;;;;15.43;3.20;;;8.00;99.90;;;;;;5056133;28;20269;-47
2022/01/17 09:24:09;;;;;;;15.03;3.00;;;8.00;99.90;;;;;;5050898;28;20589;-42
2022/01/17 09:26:36;;;;;;;6.77;2.10;;;8.00;99.90;;;;;;5049109;28;20666;-44
2022/01/17 09:29:05;;;;;;;8.40;2.40;;;8.00;99.90;;;;;;5046558;28;20214;-46
2022/01/17 09:31:32;;;;;;;9.33;2.30;;;8.00;99.90;;;;;;5020861;28;20219;-44
2022/01/17 09:33:58;;;;;;;5.97;1.30;;;8.00;99.90;;;;;;5044348;28;20213;-43
2022/01/17 09:36:28;;;;;;;6.97;1.47;;;7.90;99.90;;;;;;5051770;28;20407;-41
2022/01/17 09:38:56;;;;;;;7.97;1.20;;;7.90;99.90;;;;;;5054248;28;20194;-42
2022/01/17 09:41:23;;;;;;;5.70;1.43;;;7.90;99.90;;;;;;5040755;28;20187;-42
2022/01/17 09:43:51;;;;;;;11.90;1.97;;;7.80;99.90;;;;;;5054500;28;20227;-43
2022/01/17 09:46:23;;;;;;;5.70;1.23;;;7.80;99.90;;;;;;5032663;28;20214;-42
2022/01/17 09:48:59;;;;;;;6.50;1.67;;;7.80;99.90;;;;;;5052229;28;20656;-45
2022/01/17 09:51:40;;;;;;;11.00;2.40;;;7.80;99.90;;;;;;5043877;28;20277;-44
2022/01/17 09:54:08;;;;;;;9.07;1.83;;;7.70;99.90;;;;;;5041826;28;20214;-43
2022/01/17 09:56:35;;;;;;;8.13;1.50;;;7.70;99.90;;;;;;5041506;28;20254;-46
2022/01/17 09:59:03;;;;;;;4.17;1.53;;;7.70;99.90;;;;;;5041440;28;20209;-44
2022/01/17 10:01:32;;;;;;;7.43;1.37;;;7.70;99.90;;;;;;5041111;28;20211;-46
2022/01/17 10:04:06;;;;;;;7.97;1.33;;;7.70;99.90;;;;;;5045829;28;20219;-43
2022/01/17 10:06:33;;;;;;;9.93;1.70;;;7.70;99.90;;;;;;5056143;28;20199;-45
2022/01/17 10:09:11;;;;;;;8.10;1.43;;;7.70;99.90;;;;;;5049415;28;20206;-45
2022/01/17 10:12:00;;;;;;;7.60;1.80;;;7.80;99.90;;;;;;5056186;28;20215;-48
2022/01/17 10:14:31;;;;;;;7.23;1.53;;;7.80;99.90;;;;;;5046659;28;20226;-42
2022/01/17 10:16:59;;;;;;;6.33;1.80;;;7.80;99.90;;;;;;5034624;28;20283;-43
2022/01/17 10:19:27;;;;;;;11.60;2.37;;;7.80;99.90;;;;;;5054429;28;20206;-44
2022/01/17 10:21:58;;;;;;;5.53;1.50;;;7.80;99.90;;;;;;5044092;28;20221;-45
2022/01/17 10:24:32;;;;;;;9.03;1.60;;;7.80;99.90;;;;;;5054545;28;20223;-47
2022/01/17 10:27:12;;;;;;;14.73;2.20;;;7.80;99.90;;;;;;5045850;28;20699;-43
2022/01/17 10:35:22;;;;;;;15.40;2.33;;;8.00;99.90;;;;;;5042159;28;20358;-46
2022/01/17 10:38:11;;;;;;;12.93;3.13;;;7.90;99.90;;;;;;5053840;28;20202;-46
2022/01/17 10:40:41;;;;;;;9.47;2.23;;;7.90;99.90;;;;;;5034611;28;20231;-46
2022/01/17 10:43:20;;;;;;;7.53;1.93;;;7.80;99.90;;;;;;5044541;28;20207;-43
2022/01/17 10:45:47;;;;;;;7.90;2.03;;;7.70;99.90;;;;;;5039934;28;20231;-44
2022/01/17 10:48:15;;;;;;;8.43;1.80;;;7.70;99.90;;;;;;5033772;28;20203;-45
2022/01/17 10:50:44;;;;;;;7.23;1.80;;;7.50;99.90;;;;;;5053031;28;20206;-43
2022/01/17 10:53:13;;;;;;;10.67;2.00;;;7.50;99.90;;;;;;5057608;28;20884;-43
2022/01/17 10:55:41;;;;;;;12.03;1.60;;;7.40;99.90;;;;;;5058384;28;20230;-46
2022/01/17 10:58:10;;;;;;;7.77;2.23;;;7.20;99.90;;;;;;5044825;28;20203;-45
2022/01/17 11:00:40;;;;;;;8.10;2.00;;;7.00;99.90;;;;;;5049657;28;20211;-45
2022/01/17 11:03:08;;;;;;;8.37;1.80;;;6.80;99.90;;;;;;5033164;28;20338;-42
2022/01/17 11:05:38;;;;;;;6.70;1.77;;;6.80;99.90;;;;;;5038879;28;20210;-44
2022/01/17 11:08:05;;;;;;;10.07;1.97;;;6.80;99.90;;;;;;5052899;28;20203;-46
2022/01/17 11:10:34;;;;;;;11.10;2.17;;;6.80;99.90;;;;;;5047163;28;20325;-43
2022/01/17 11:13:04;;;;;;;12.33;2.43;;;6.80;99.90;;;;;;5049312;28;20571;-45
2022/01/17 11:15:33;;;;;;;10.70;3.07;;;6.80;99.90;;;;;;5044794;28;20225;-43
2022/01/17 11:18:04;;;;;;;13.93;3.10;;;6.80;99.90;;;;;;5048621;28;20215;-44
2022/01/17 11:20:32;;;;;;;11.97;2.60;;;6.80;99.90;;;;;;5025161;28;20213;-45
2022/01/17 11:23:01;;;;;;;14.20;3.43;;;6.80;99.90;;;;;;5051507;28;20199;-49
2022/01/17 11:25:31;;;;;;;13.13;2.70;;;6.80;99.90;;;;;;5045512;28;20221;-48
2022/01/17 11:27:59;;;;;;;13.33;2.17;;;6.90;99.90;;;;;;5046620;28;20265;-51
2022/01/17 11:30:26;;;;;;;11.10;2.90;;;6.90;99.90;;;;;;5048816;28;20227;-50
2022/01/17 11:32:55;;;;;;;11.87;2.70;;;6.80;99.90;;;;;;5048463;28;20303;-45
2022/01/17 11:35:23;;;;;;;16.07;3.50;;;6.80;99.90;;;;;;5038417;28;20294;-46
2022/01/17 11:37:55;;;;;;;11.17;2.67;;;6.80;99.90;;;;;;5049572;28;21083;-52
2022/01/17 11:40:28;;;;;;;19.73;3.47;;;6.80;99.90;;;;;;5049387;28;20586;-49
2022/01/17 11:42:55;;;;;;;15.13;3.57;;;6.90;99.90;;;;;;5049369;28;20213;-45
2022/01/17 11:45:38;;;;;;;15.17;3.47;;;6.90;99.90;;;;;;5050662;28;20253;-48
2022/01/17 11:48:25;;;;;;;14.27;3.13;;;6.90;99.90;;;;;;5052667;28;20277;-46
2022/01/17 11:50:54;;;;;;;11.37;2.40;;;6.80;99.90;;;;;;5037281;28;20207;-49
2022/01/17 11:53:45;;;;;;;13.63;3.03;;;6.90;99.90;;;;;;5055277;28;20213;-49
2022/01/17 11:56:39;;;;;;;18.77;3.13;;;6.90;99.90;;;;;;5041904;28;20238;-45
2022/01/17 11:59:36;;;;;;;20.23;3.07;;;6.90;99.90;;;;;;5042310;28;20203;-49
2022/01/17 12:02:17;;;;;;;13.63;2.87;;;6.90;99.90;;;;;;5045810;28;20234;-46
2022/01/17 12:05:44;;;;;;;17.80;2.80;;;6.90;99.90;;;;;;5043534;28;20226;-47
2022/01/17 12:08:18;;;;;;;14.33;2.77;;;6.90;99.90;;;;;;5049014;28;20248;-46
2022/01/17 12:10:52;;;;;;;10.53;3.07;;;6.90;99.90;;;;;;5051805;28;20194;-47
2022/01/17 12:13:40;;;;;;;16.93;3.30;;;6.90;99.90;;;;;;5053291;28;20211;-48
2022/01/17 12:16:14;;;;;;;11.77;3.47;;;6.90;99.90;;;;;;5040964;28;20226;-48
2022/01/17 12:18:42;;;;;;;16.30;3.53;;;6.90;99.90;;;;;;5050163;28;20206;-47
2022/01/17 12:21:34;;;;;;;12.67;2.60;;;6.90;99.90;;;;;;5038186;28;20210;-50
2022/01/17 12:24:35;;;;;;;16.50;3.33;;;6.80;99.90;;;;;;5032069;28;20239;-46
2022/01/17 12:27:26;;;;;;;16.53;3.17;;;6.80;99.90;;;;;;5048600;28;20278;-48
2022/01/17 12:29:57;;;;;;;12.87;4.27;;;6.80;99.90;;;;;;5035652;28;20972;-51
2022/01/17 12:32:51;;;;;;;16.10;3.43;;;6.70;99.90;;;;;;5047556;28;20225;-51
2022/01/17 12:35:29;;;;;;;25.87;3.40;;;6.70;99.90;;;;;;5047077;28;20211;-47
2022/01/17 12:38:05;;;;;;;16.93;3.57;;;6.70;99.90;;;;;;5036603;28;20222;-47
2022/01/17 12:40:35;;;;;;;15.30;3.23;;;6.70;99.90;;;;;;5041329;28;20199;-49
2022/01/17 12:43:05;;;;;;;20.30;3.77;;;6.70;99.90;;;;;;5047819;28;20191;-49
2022/01/17 12:45:35;;;;;;;17.93;3.13;;;6.70;99.90;;;;;;5047580;28;20313;-50
2022/01/17 12:48:04;;;;;;;18.20;3.97;;;6.70;99.90;;;;;;5049819;28;20664;-49
2022/01/17 12:50:33;;;;;;;17.03;3.23;;;6.70;99.90;;;;;;5051603;28;20574;-49
2022/01/17 12:53:03;;;;;;;22.40;3.90;;;6.70;99.90;;;;;;5042472;28;20229;-47
2022/01/17 12:55:36;;;;;;;20.20;3.27;;;6.80;99.90;;;;;;5050467;28;20230;-50
2022/01/17 12:58:14;;;;;;;14.30;4.30;;;6.80;99.90;;;;;;5048044;28;21003;-48
2022/01/17 13:00:47;;;;;;;19.13;3.77;;;6.80;99.90;;;;;;5045854;28;20211;-51
2022/01/17 13:03:15;;;;;;;18.93;3.77;;;6.80;99.90;;;;;;5056885;28;20605;-49
2022/01/17 13:05:42;;;;;;;16.33;3.60;;;6.80;99.90;;;;;;5052094;28;20568;-51
2022/01/17 13:08:09;;;;;;;23.03;4.03;;;6.80;99.90;;;;;;5036261;28;20575;-52
2022/01/17 13:10:35;;;;;;;16.27;4.13;;;6.80;99.90;;;;;;5050450;28;20182;-51
2022/01/17 13:13:03;;;;;;;16.77;4.13;;;6.80;99.90;;;;;;5047289;28;20201;-50
2022/01/17 13:15:30;;;;;;;18.57;3.47;;;6.80;99.90;;;;;;5037146;28;20219;-53
2022/01/17 13:17:58;;;;;;;14.13;3.03;;;6.80;99.90;;;;;;5048817;28;20278;-46